createdAt,value
2024-02-29T12:02:16.200Z,12.38
2024-02-29T12:04:42.838Z,15.43
2024-02-29T12:07:09.508Z,15.88
2024-02-29T12:09:36.266Z,14.80
2024-02-29T12:12:03.176Z,14.68
2024-02-29T12:14:30.302Z,14.02
2024-02-29T12:16:57.175Z,14.63
2024-02-29T12:19:24.064Z,12.88
2024-02-29T12:21:52.324Z,15.98
2024-02-29T12:24:20.170Z,12.15
2024-02-29T12:26:49.605Z,13.82
2024-02-29T12:29:16.313Z,13.35
2024-02-29T12:31:43.246Z,14.73
2024-02-29T12:34:10.121Z,14.73
2024-02-29T12:36:37.006Z,15.77
2024-02-29T12:39:04.172Z,13.40
2024-02-29T12:41:30.976Z,15.25
2024-02-29T12:44:02.516Z,13.85
2024-02-29T12:46:29.771Z,13.32
2024-02-29T12:48:57.487Z,13.07
2024-02-29T12:51:24.942Z,13.77
2024-02-29T12:53:51.529Z,11.70
2024-02-29T12:56:18.168Z,12.70
2024-02-29T12:58:48.111Z,14.45
2024-02-29T13:01:16.464Z,17.40
2024-02-29T13:03:43.712Z,14.65
2024-02-29T13:06:11.709Z,17.17
2024-02-29T13:08:39.228Z,15.82
2024-02-29T13:11:06.429Z,13.82
2024-02-29T13:13:33.491Z,16.83
2024-02-29T13:16:00.510Z,15.02
2024-02-29T13:18:27.341Z,15.18
2024-02-29T13:20:54.096Z,13.85
2024-02-29T13:23:20.714Z,15.30
2024-02-29T13:25:47.742Z,13.98
2024-02-29T13:28:14.931Z,16.35
2024-02-29T13:30:42.052Z,16.25
2024-02-29T13:33:08.939Z,18.05
2024-02-29T13:35:35.575Z,18.80
2024-02-29T13:38:02.397Z,15.88
2024-02-29T13:40:29.583Z,16.02
2024-02-29T13:42:56.332Z,13.77
2024-02-29T13:45:23.101Z,14.30
2024-02-29T13:47:51.952Z,14.55
2024-02-29T13:50:21.565Z,16.75
2024-02-29T13:52:48.851Z,13.43
2024-02-29T13:55:16.066Z,15.73
2024-02-29T13:57:43.796Z,15.75
2024-02-29T14:00:11.801Z,16.33
2024-02-29T14:02:38.463Z,18.88
2024-02-29T14:05:06.422Z,15.57
2024-02-29T14:07:36.449Z,18.08
2024-02-29T14:10:03.765Z,17.73
2024-02-29T14:12:32.957Z,18.23
2024-02-29T14:14:59.575Z,17.83
2024-02-29T14:17:26.207Z,15.93
2024-02-29T14:19:52.967Z,15.77
2024-02-29T14:22:19.731Z,15.68
2024-02-29T14:24:48.313Z,20.05
2024-02-29T14:27:16.967Z,18.25
2024-02-29T14:29:43.544Z,17.38
2024-02-29T14:32:10.244Z,21.15
2024-02-29T14:34:37.291Z,17.25
2024-02-29T14:37:04.223Z,19.00
2024-02-29T14:39:31.944Z,14.90
2024-02-29T14:41:58.677Z,16.20
2024-02-29T14:44:25.348Z,15.07
2024-02-29T14:46:54.970Z,13.73
2024-02-29T14:49:22.068Z,14.27
2024-02-29T14:51:48.736Z,17.83
2024-02-29T14:54:15.896Z,15.45
2024-02-29T14:56:44.492Z,13.80
2024-02-29T14:59:12.160Z,16.40
2024-02-29T15:01:38.967Z,19.52
2024-02-29T15:04:05.974Z,15.90
2024-02-29T15:06:32.801Z,18.27
2024-02-29T15:08:59.459Z,16.77
2024-02-29T15:11:27.641Z,19.65
2024-02-29T15:13:54.660Z,13.55
2024-02-29T15:16:21.381Z,16.48
2024-02-29T15:18:48.192Z,13.23
2024-02-29T15:21:15.052Z,19.33
2024-02-29T15:23:41.926Z,17.45
2024-02-29T15:26:12.208Z,15.77
2024-02-29T15:28:42.217Z,14.88
2024-02-29T15:31:09.566Z,14.55
2024-02-29T15:33:36.415Z,15.95
2024-02-29T15:36:03.716Z,15.32
2024-02-29T15:38:30.609Z,13.07
2024-02-29T15:40:57.339Z,14.70
2024-02-29T15:43:24.008Z,14.60
2024-02-29T15:45:50.889Z,15.98
2024-02-29T15:48:17.662Z,18.15
2024-02-29T15:50:46.877Z,16.70
2024-02-29T15:53:16.325Z,14.52
2024-02-29T15:55:43.091Z,15.02
2024-02-29T15:58:10.178Z,18.38
2024-02-29T16:00:36.930Z,16.27
2024-02-29T16:03:07.244Z,13.68
2024-02-29T16:05:37.114Z,16.77
2024-02-29T16:08:05.407Z,17.35
2024-02-29T16:10:32.715Z,14.52
2024-02-29T16:12:59.836Z,19.65
2024-02-29T16:15:26.969Z,17.98
2024-02-29T16:17:54.031Z,15.75
2024-02-29T16:20:21.328Z,19.90
2024-02-29T16:22:48.452Z,18.50
2024-02-29T16:25:15.673Z,15.52
2024-02-29T16:27:42.717Z,17.42
2024-02-29T16:30:09.934Z,19.95
2024-02-29T16:32:36.765Z,20.88
2024-02-29T16:35:05.113Z,16.48
2024-02-29T16:37:31.861Z,20.05
2024-02-29T16:39:58.645Z,25.35
2024-02-29T16:42:25.277Z,16.67
2024-02-29T16:44:51.855Z,20.40
2024-02-29T16:47:18.690Z,19.63
2024-02-29T16:49:46.457Z,19.33
2024-02-29T16:52:15.186Z,21.58
2024-02-29T16:54:42.143Z,18.67
2024-02-29T16:57:09.009Z,19.33
2024-02-29T16:59:37.114Z,17.58
2024-02-29T17:02:04.206Z,18.00
2024-02-29T17:04:31.437Z,18.55
2024-02-29T17:06:58.055Z,17.00
2024-02-29T17:09:24.626Z,17.98
2024-02-29T17:11:51.427Z,19.55
2024-02-29T17:14:18.170Z,18.33
2024-02-29T17:16:44.742Z,18.50
2024-02-29T17:19:11.558Z,18.67
2024-02-29T17:21:41.083Z,18.15
2024-02-29T17:24:09.075Z,18.15
2024-02-29T17:26:35.747Z,18.25
2024-02-29T17:29:02.332Z,16.67
2024-02-29T17:31:28.986Z,18.27
2024-02-29T17:33:55.683Z,19.30
2024-02-29T17:36:23.629Z,20.10
2024-02-29T17:38:50.161Z,21.90
2024-02-29T17:41:17.725Z,15.20
2024-02-29T17:43:44.272Z,17.60
2024-02-29T17:46:11.029Z,15.10
2024-02-29T17:48:37.796Z,20.13
2024-02-29T17:51:08.325Z,18.35
2024-02-29T17:53:35.095Z,14.15
2024-02-29T17:56:01.988Z,20.77
2024-02-29T17:58:28.594Z,21.85
2024-02-29T18:00:57.752Z,23.05
2024-02-29T18:03:25.224Z,18.65
2024-02-29T18:05:52.157Z,23.02
2024-02-29T18:08:18.845Z,25.67
2024-02-29T18:10:45.599Z,19.08
2024-02-29T18:13:12.464Z,20.83
2024-02-29T18:15:39.072Z,23.67
2024-02-29T18:18:06.395Z,19.98
2024-02-29T18:20:33.345Z,23.60
2024-02-29T18:22:59.915Z,24.95
2024-02-29T18:25:29.426Z,22.88
2024-02-29T18:27:56.456Z,22.88
2024-02-29T18:30:23.200Z,26.98
2024-02-29T18:32:49.793Z,22.50
2024-02-29T18:35:16.804Z,26.70
2024-02-29T18:37:43.628Z,26.45
2024-02-29T18:40:12.774Z,25.95
2024-02-29T18:42:40.136Z,28.63
2024-02-29T18:45:07.818Z,26.08
2024-02-29T18:47:37.463Z,28.25
2024-02-29T18:50:06.081Z,27.13
2024-02-29T18:52:32.992Z,26.73
2024-02-29T18:54:59.880Z,21.25
2024-02-29T18:57:26.510Z,23.08
2024-02-29T18:59:53.155Z,20.98
2024-02-29T19:02:19.720Z,18.83
2024-02-29T19:04:51.634Z,19.63
2024-02-29T19:07:19.223Z,23.42
2024-02-29T19:09:46.434Z,23.30
2024-02-29T19:12:13.432Z,26.92
2024-02-29T19:14:40.382Z,22.77
2024-02-29T19:17:07.007Z,27.95
2024-02-29T19:19:33.623Z,22.95
2024-02-29T19:22:01.033Z,24.73
2024-02-29T19:24:27.715Z,23.55
2024-02-29T19:26:54.297Z,20.35
2024-02-29T19:29:21.208Z,19.00
2024-02-29T19:31:49.090Z,22.45
2024-02-29T19:34:15.762Z,20.27
2024-02-29T19:36:42.575Z,23.90
2024-02-29T19:39:09.375Z,19.27
2024-02-29T19:41:35.955Z,27.40
2024-02-29T19:44:02.515Z,25.17
2024-02-29T19:46:29.437Z,23.77
2024-02-29T19:48:56.226Z,20.83
2024-02-29T19:51:22.848Z,27.65
2024-02-29T19:53:49.660Z,21.88
2024-02-29T19:56:16.260Z,28.45
2024-02-29T19:58:42.865Z,26.42
2024-02-29T20:01:09.663Z,27.27
2024-02-29T20:03:36.348Z,26.67
2024-02-29T20:06:03.048Z,27.08
2024-02-29T20:08:29.900Z,27.00
2024-02-29T20:10:56.690Z,23.02
2024-02-29T20:13:23.887Z,21.65
2024-02-29T20:15:51.124Z,29.13
2024-02-29T20:18:19.229Z,23.75
2024-02-29T20:20:45.953Z,20.75
2024-02-29T20:23:13.069Z,20.33
2024-02-29T20:25:41.784Z,20.02
2024-02-29T20:28:09.035Z,18.88
2024-02-29T20:30:36.038Z,16.85
2024-02-29T20:33:02.636Z,24.83
2024-02-29T20:35:29.236Z,17.95
2024-02-29T20:37:56.227Z,17.35
2024-02-29T20:40:23.225Z,23.50
2024-02-29T20:42:49.864Z,20.23
2024-02-29T20:45:17.650Z,20.35
2024-02-29T20:47:45.006Z,23.30
2024-02-29T20:50:14.621Z,22.38
2024-02-29T20:52:43.439Z,22.52
2024-02-29T20:55:10.587Z,21.10
2024-02-29T20:57:37.617Z,19.52
2024-02-29T21:00:05.115Z,20.83
2024-02-29T21:02:31.778Z,19.00
2024-02-29T21:05:05.210Z,19.23
2024-02-29T21:07:35.674Z,16.17
2024-02-29T21:10:02.418Z,16.15
2024-02-29T21:12:29.419Z,14.60
2024-02-29T21:14:56.046Z,19.13
2024-02-29T21:17:22.829Z,18.17
2024-02-29T21:19:49.601Z,14.27
2024-02-29T21:22:16.274Z,16.63
2024-02-29T21:24:42.966Z,14.68
2024-02-29T21:27:09.858Z,21.20
2024-02-29T21:29:36.696Z,18.38
2024-02-29T21:32:03.963Z,20.13
2024-02-29T21:34:30.768Z,18.92
2024-02-29T21:36:57.600Z,17.75
2024-02-29T21:39:32.233Z,20.15
2024-02-29T21:42:03.948Z,17.63
2024-02-29T21:44:30.857Z,20.30
2024-02-29T21:46:57.466Z,22.33
2024-02-29T21:49:24.199Z,16.58
2024-02-29T21:51:51.760Z,17.48
2024-02-29T21:54:21.028Z,20.58
2024-02-29T21:56:47.981Z,21.23
2024-02-29T21:59:14.810Z,15.57
2024-02-29T22:01:41.488Z,16.40
2024-02-29T22:04:08.191Z,16.55
2024-02-29T22:06:35.064Z,17.83
2024-02-29T22:09:03.231Z,15.30
2024-02-29T22:11:29.987Z,15.63
2024-02-29T22:13:57.458Z,17.73
2024-02-29T22:16:24.537Z,14.73
2024-02-29T22:18:51.173Z,17.63
2024-02-29T22:21:28.159Z,16.20
2024-02-29T22:23:55.641Z,18.23
2024-02-29T22:26:24.843Z,16.67
2024-02-29T22:28:53.029Z,15.40
2024-02-29T22:31:20.406Z,16.10
2024-02-29T22:33:47.300Z,19.33
2024-02-29T22:36:14.562Z,15.80
2024-02-29T22:38:41.710Z,17.00
2024-02-29T22:41:08.396Z,15.88
2024-02-29T22:43:35.176Z,15.57
2024-02-29T22:46:02.110Z,19.98
2024-02-29T22:48:28.766Z,17.55
2024-02-29T22:50:55.443Z,15.35
2024-02-29T22:53:23.340Z,18.63
2024-02-29T22:55:51.475Z,14.77
2024-02-29T22:58:19.740Z,15.32
2024-02-29T23:00:53.145Z,16.45
2024-02-29T23:03:22.289Z,14.25
2024-02-29T23:05:49.499Z,13.75
2024-02-29T23:08:16.656Z,19.83
2024-02-29T23:10:43.533Z,19.80
2024-02-29T23:13:11.441Z,15.82
2024-02-29T23:15:38.127Z,15.55
2024-02-29T23:18:05.519Z,17.40
2024-02-29T23:20:32.737Z,15.93
2024-02-29T23:23:00.912Z,13.68
2024-02-29T23:25:27.908Z,13.73
2024-02-29T23:27:54.811Z,15.93
2024-02-29T23:30:21.699Z,14.73
2024-02-29T23:32:48.547Z,13.82
2024-02-29T23:35:15.637Z,14.20
2024-02-29T23:37:42.210Z,16.65
2024-02-29T23:40:09.577Z,15.80
2024-02-29T23:42:36.506Z,16.33
2024-02-29T23:45:03.092Z,13.80
2024-02-29T23:47:33.667Z,17.08
2024-02-29T23:50:01.086Z,19.73
2024-02-29T23:52:27.901Z,14.55
2024-02-29T23:54:54.510Z,14.80
2024-02-29T23:57:21.334Z,15.52
2024-02-29T23:59:48.120Z,14.73
